createdAt,value
2019-03-03T00:00:58.480Z,36.50
2019-03-03T00:01:58.787Z,35.60
2019-03-03T00:02:59.150Z,38.30
2019-03-03T00:03:59.333Z,35.90
2019-03-03T00:04:59.617Z,37.10
2019-03-03T00:05:59.873Z,34.00
2019-03-03T00:07:00.168Z,34.60
2019-03-03T00:08:00.435Z,36.40
2019-03-03T00:09:00.671Z,33.80
2019-03-03T00:10:00.972Z,37.40
2019-03-03T00:11:01.343Z,36.10
2019-03-03T00:12:01.499Z,34.10
2019-03-03T00:13:01.792Z,36.20
2019-03-03T00:14:02.018Z,32.30
2019-03-03T00:15:02.321Z,34.30
2019-03-03T00:16:02.571Z,33.90
2019-03-03T00:17:02.836Z,35.80
2019-03-03T00:18:03.129Z,33.60
2019-03-03T00:19:03.427Z,32.70
2019-03-03T00:20:03.645Z,32.90
2019-03-03T00:21:08.666Z,39.10
2019-03-03T00:22:04.211Z,37.50
2019-03-03T00:23:04.467Z,33.00
2019-03-03T00:24:04.686Z,37.30
2019-03-03T00:25:04.997Z,35.00
2019-03-03T00:26:05.244Z,35.50
2019-03-03T00:27:05.623Z,36.10
2019-03-03T00:28:05.826Z,35.40
2019-03-03T00:29:06.019Z,36.80
2019-03-03T00:30:06.318Z,33.60
2019-03-03T00:31:06.570Z,36.20
2019-03-03T00:32:06.875Z,35.50
2019-03-03T00:33:07.168Z,36.50
2019-03-03T00:34:07.415Z,36.40
2019-03-03T00:35:07.706Z,35.60
2019-03-03T00:36:07.947Z,37.00
2019-03-03T00:37:08.199Z,37.30
2019-03-03T00:38:08.458Z,37.90
2019-03-03T00:39:08.759Z,35.90
2019-03-03T00:40:08.967Z,37.10
2019-03-03T00:41:09.263Z,34.60
2019-03-03T00:42:09.545Z,36.40
2019-03-03T00:43:09.810Z,37.90
2019-03-03T00:44:10.201Z,35.50
2019-03-03T00:45:10.364Z,36.00
2019-03-03T00:46:10.618Z,38.30
2019-03-03T00:47:10.904Z,36.10
2019-03-03T00:48:11.144Z,36.00
2019-03-03T00:49:11.473Z,37.70
2019-03-03T00:50:11.789Z,36.80
2019-03-03T00:51:11.940Z,37.20
2019-03-03T00:52:14.167Z,40.30
2019-03-03T00:53:12.490Z,37.70
2019-03-03T00:54:12.961Z,36.90
2019-03-03T00:55:13.291Z,37.70
2019-03-03T00:56:13.285Z,37.20
2019-03-03T00:57:13.584Z,36.40
2019-03-03T00:58:13.838Z,39.10
2019-03-03T00:59:14.142Z,36.10
2019-03-03T01:00:14.419Z,37.00
2019-03-03T01:01:14.617Z,38.90
2019-03-03T01:02:14.907Z,36.10
2019-03-03T01:03:15.173Z,37.40
2019-03-03T01:04:15.508Z,37.20
2019-03-03T01:05:15.715Z,37.90
2019-03-03T01:06:15.972Z,36.40
2019-03-03T01:07:16.242Z,38.70
2019-03-03T01:08:16.522Z,37.70
2019-03-03T01:09:16.788Z,36.00
2019-03-03T01:10:17.043Z,39.90
2019-03-03T01:11:17.303Z,36.50
2019-03-03T01:12:17.595Z,39.20
2019-03-03T01:13:17.833Z,39.90
2019-03-03T01:14:18.166Z,42.90
2019-03-03T01:15:18.391Z,39.90
2019-03-03T01:16:18.670Z,38.40
2019-03-03T01:17:19.016Z,39.00
2019-03-03T01:18:19.171Z,37.70
2019-03-03T01:19:19.476Z,40.10
2019-03-03T01:20:19.730Z,42.90
2019-03-03T01:21:20.000Z,42.20
2019-03-03T01:22:20.265Z,44.90
2019-03-03T01:23:20.588Z,45.60
2019-03-03T01:24:20.819Z,47.30
2019-03-03T01:25:21.234Z,47.50
2019-03-03T01:26:21.355Z,46.50
2019-03-03T01:27:21.641Z,48.90
2019-03-03T01:28:21.897Z,51.80
2019-03-03T01:29:22.144Z,51.20
2019-03-03T01:30:22.436Z,52.40
2019-03-03T01:31:22.691Z,53.60
2019-03-03T01:32:22.963Z,55.10
2019-03-03T01:33:23.296Z,50.70
2019-03-03T01:34:23.496Z,51.40
2019-03-03T01:35:23.751Z,50.00
2019-03-03T01:36:24.022Z,51.70
2019-03-03T01:37:24.313Z,51.30
2019-03-03T01:38:24.578Z,50.80
2019-03-03T01:39:24.806Z,51.00
2019-03-03T01:40:25.170Z,48.90
2019-03-03T01:41:25.399Z,48.60
2019-03-03T01:42:25.617Z,50.20
2019-03-03T01:43:25.899Z,51.40
2019-03-03T01:44:26.162Z,52.40
2019-03-03T01:45:26.428Z,55.60
2019-03-03T01:46:26.671Z,50.50
2019-03-03T01:47:26.947Z,53.70
2019-03-03T01:48:27.298Z,52.60
2019-03-03T01:49:27.550Z,55.20
2019-03-03T01:50:27.848Z,58.40
2019-03-03T01:51:28.009Z,59.10
2019-03-03T01:52:28.303Z,56.80
2019-03-03T01:53:28.654Z,57.90
2019-03-03T01:54:28.842Z,61.10
2019-03-03T01:55:29.134Z,63.10
2019-03-03T01:56:29.385Z,58.90
2019-03-03T01:57:29.653Z,63.80
2019-03-03T01:58:30.091Z,61.50
2019-03-03T01:59:30.168Z,60.70
2019-03-03T02:00:30.468Z,62.20
2019-03-03T02:01:30.719Z,61.60
2019-03-03T02:02:30.975Z,56.70
2019-03-03T02:03:31.274Z,59.90
2019-03-03T02:04:31.520Z,58.30
2019-03-03T02:05:31.814Z,60.90
2019-03-03T02:06:32.211Z,63.90
2019-03-03T02:07:32.311Z,59.30
2019-03-03T02:08:32.610Z,62.50
2019-03-03T02:09:32.864Z,57.80
2019-03-03T02:10:33.140Z,61.40
2019-03-03T02:11:33.431Z,64.00
2019-03-03T02:12:33.677Z,64.20
2019-03-03T02:13:33.970Z,64.40
2019-03-03T02:14:34.276Z,60.30
2019-03-03T02:15:34.477Z,58.70
2019-03-03T02:16:34.734Z,58.90
2019-03-03T02:17:35.005Z,58.00
2019-03-03T02:18:35.339Z,53.50
2019-03-03T02:19:35.520Z,57.50
2019-03-03T02:20:35.786Z,58.60
2019-03-03T02:21:36.062Z,61.30
2019-03-03T02:22:36.375Z,57.60
2019-03-03T02:23:36.602Z,57.20
2019-03-03T02:24:36.849Z,63.20
2019-03-03T02:25:37.103Z,67.40
2019-03-03T02:26:37.424Z,66.20
2019-03-03T02:27:37.683Z,65.80
2019-03-03T02:28:37.971Z,67.30
2019-03-03T02:29:38.222Z,63.90
2019-03-03T02:30:38.518Z,68.80
2019-03-03T02:31:38.878Z,74.50
2019-03-03T02:32:39.043Z,70.80
2019-03-03T02:33:39.600Z,72.50
2019-03-03T02:34:39.577Z,68.00
2019-03-03T02:35:39.850Z,65.60
2019-03-03T02:36:40.132Z,66.50
2019-03-03T02:37:40.370Z,65.30
2019-03-03T02:38:40.674Z,62.00
2019-03-03T02:39:41.038Z,70.60
2019-03-03T02:40:41.207Z,67.00
2019-03-03T02:41:41.463Z,66.90
2019-03-03T02:42:41.721Z,64.20
2019-03-03T02:43:42.031Z,61.40
2019-03-03T02:44:42.258Z,64.10
2019-03-03T02:45:42.529Z,63.00
2019-03-03T02:46:42.830Z,63.90
2019-03-03T02:47:43.149Z,64.40
2019-03-03T02:48:43.345Z,64.30
2019-03-03T02:49:43.596Z,66.90
2019-03-03T02:50:43.865Z,66.00
2019-03-03T02:51:44.169Z,66.70
2019-03-03T02:52:44.388Z,68.40
2019-03-03T02:53:44.702Z,71.80
2019-03-03T02:54:44.960Z,66.20
2019-03-03T02:55:45.252Z,61.40
2019-03-03T02:56:45.517Z,68.70
2019-03-03T02:57:45.745Z,69.30
2019-03-03T02:58:46.016Z,70.20
2019-03-03T02:59:46.356Z,67.50
2019-03-03T03:00:46.568Z,77.30
2019-03-03T03:01:46.847Z,71.40
2019-03-03T03:02:47.130Z,70.50
2019-03-03T03:03:47.412Z,73.60
2019-03-03T03:04:47.705Z,64.80
2019-03-03T03:05:48.006Z,66.50
2019-03-03T03:06:48.278Z,64.40
2019-03-03T03:07:48.515Z,61.10
2019-03-03T03:08:48.806Z,69.50
2019-03-03T03:09:49.051Z,62.00
2019-03-03T03:10:49.311Z,62.10
2019-03-03T03:11:49.681Z,66.80
2019-03-03T03:12:49.976Z,68.70
2019-03-03T03:13:50.163Z,67.50
2019-03-03T03:14:50.491Z,69.90
2019-03-03T03:15:50.666Z,72.40
2019-03-03T03:16:50.979Z,71.40
2019-03-03T03:17:51.221Z,72.00
2019-03-03T03:18:51.506Z,72.70
2019-03-03T03:19:51.759Z,71.80
2019-03-03T03:20:52.146Z,76.30
2019-03-03T03:21:52.357Z,72.30
2019-03-03T03:22:52.555Z,73.40
2019-03-03T03:23:52.846Z,72.10
2019-03-03T03:24:53.103Z,69.80
2019-03-03T03:25:53.370Z,74.50
2019-03-03T03:26:53.650Z,72.90
2019-03-03T03:27:53.907Z,71.10
2019-03-03T03:28:54.240Z,68.10
2019-03-03T03:29:54.456Z,72.70
2019-03-03T03:30:54.748Z,71.20
2019-03-03T03:31:55.038Z,73.60
2019-03-03T03:32:55.273Z,69.50
2019-03-03T03:33:55.554Z,69.10
2019-03-03T03:34:55.849Z,72.20
2019-03-03T03:35:56.109Z,72.50
2019-03-03T03:36:56.489Z,70.20
2019-03-03T03:37:56.611Z,69.10
2019-03-03T03:38:56.908Z,67.60
2019-03-03T03:39:57.202Z,69.30
2019-03-03T03:40:57.450Z,77.90
2019-03-03T03:41:57.740Z,74.40
2019-03-03T03:42:58.000Z,72.30
2019-03-03T03:43:58.239Z,70.40
2019-03-03T03:44:58.564Z,65.70
2019-03-03T03:45:58.839Z,74.10
2019-03-03T03:46:59.086Z,74.00
2019-03-03T03:47:59.363Z,64.90
2019-03-03T03:48:59.589Z,70.20
2019-03-03T03:49:59.891Z,65.80
2019-03-03T03:51:00.146Z,69.70
2019-03-03T03:52:00.436Z,64.90
2019-03-03T03:53:00.701Z,70.20
2019-03-03T03:54:01.054Z,72.50
2019-03-03T03:55:01.231Z,63.90
2019-03-03T03:56:01.495Z,64.50
2019-03-03T03:57:01.785Z,67.70
2019-03-03T03:58:02.048Z,63.30
2019-03-03T03:59:02.301Z,59.90
2019-03-03T04:00:02.588Z,70.30
2019-03-03T04:01:02.826Z,61.80
2019-03-03T04:02:03.260Z,66.40
2019-03-03T04:03:03.399Z,67.80
2019-03-03T04:04:03.639Z,65.40
2019-03-03T04:05:03.919Z,64.80
2019-03-03T04:06:04.190Z,70.10
2019-03-03T04:07:04.477Z,65.90
2019-03-03T04:08:04.728Z,69.40
2019-03-03T04:09:04.981Z,67.20
2019-03-03T04:10:05.315Z,68.80
2019-03-03T04:11:05.492Z,72.40
2019-03-03T04:12:06.024Z,68.60
2019-03-03T04:13:06.070Z,71.90
2019-03-03T04:14:06.336Z,75.40
2019-03-03T04:15:06.615Z,70.80
2019-03-03T04:16:06.869Z,72.30
2019-03-03T04:17:07.154Z,74.80
2019-03-03T04:18:07.451Z,85.30
2019-03-03T04:19:07.649Z,74.50
2019-03-03T04:20:07.943Z,69.40
2019-03-03T04:21:08.263Z,65.90
2019-03-03T04:22:08.489Z,68.30
2019-03-03T04:23:08.748Z,65.10
2019-03-03T04:24:09.010Z,66.70
2019-03-03T04:25:09.300Z,63.80
2019-03-03T04:26:10.081Z,61.40
2019-03-03T04:27:09.926Z,56.20
2019-03-03T04:28:10.102Z,56.20
2019-03-03T04:29:10.366Z,52.50
2019-03-03T04:30:10.665Z,52.00
2019-03-03T04:31:10.913Z,59.30
2019-03-03T04:32:11.183Z,60.90
2019-03-03T04:33:11.469Z,58.90
2019-03-03T04:34:11.713Z,62.80
2019-03-03T04:35:12.476Z,58.20
2019-03-03T04:36:12.263Z,59.20
2019-03-03T04:37:12.524Z,57.60
2019-03-03T04:38:12.810Z,58.90
2019-03-03T04:39:13.065Z,57.40
2019-03-03T04:40:13.400Z,57.10
2019-03-03T04:41:13.646Z,63.10
2019-03-03T04:42:13.899Z,61.50
2019-03-03T04:43:14.305Z,56.80
2019-03-03T04:44:14.424Z,64.10
2019-03-03T04:45:14.703Z,56.40
2019-03-03T04:46:14.965Z,59.80
2019-03-03T04:47:15.240Z,56.60
2019-03-03T04:48:15.524Z,57.40
2019-03-03T04:49:15.783Z,49.60
2019-03-03T04:50:16.060Z,54.40
2019-03-03T04:51:16.347Z,57.40
2019-03-03T04:52:16.559Z,55.20
2019-03-03T04:53:16.852Z,55.90
2019-03-03T04:54:17.111Z,53.00
2019-03-03T04:55:17.393Z,53.20
2019-03-03T04:56:17.636Z,49.90
2019-03-03T04:57:17.891Z,50.20
2019-03-03T04:58:18.190Z,51.90
2019-03-03T04:59:18.481Z,53.20
2019-03-03T05:00:18.730Z,47.60
2019-03-03T05:01:18.975Z,47.40
2019-03-03T05:02:19.233Z,50.30
2019-03-03T05:03:19.524Z,44.60
2019-03-03T05:04:19.805Z,51.80
2019-03-03T05:05:20.073Z,42.60
2019-03-03T05:06:20.321Z,45.20
2019-03-03T05:07:20.636Z,42.70
2019-03-03T05:08:20.994Z,38.80
2019-03-03T05:09:21.122Z,39.10
2019-03-03T05:10:21.408Z,43.50
2019-03-03T05:11:21.658Z,43.90
2019-03-03T05:12:21.925Z,41.70
2019-03-03T05:13:22.208Z,44.00
2019-03-03T05:14:22.468Z,43.90
2019-03-03T05:15:22.755Z,39.20
2019-03-03T05:16:23.148Z,41.50
2019-03-03T05:17:23.242Z,38.70
2019-03-03T05:18:23.528Z,38.80
2019-03-03T05:19:23.807Z,38.90
2019-03-03T05:20:24.108Z,35.90
2019-03-03T05:21:24.344Z,38.90
2019-03-03T05:22:24.611Z,36.80
2019-03-03T05:23:24.904Z,34.80
2019-03-03T05:24:33.657Z,32.30
2019-03-03T05:25:26.430Z,36.90
2019-03-03T05:26:25.673Z,33.70
2019-03-03T05:27:25.936Z,33.60
2019-03-03T05:28:26.229Z,35.40
2019-03-03T05:29:26.464Z,35.20
2019-03-03T05:30:26.762Z,40.00
2019-03-03T05:31:27.019Z,34.60
2019-03-03T05:32:27.314Z,33.90
2019-03-03T05:33:27.554Z,33.70
2019-03-03T05:34:27.805Z,31.20
2019-03-03T05:35:28.069Z,32.70
2019-03-03T05:36:28.334Z,32.50
2019-03-03T05:37:28.625Z,31.30
2019-03-03T05:38:28.901Z,31.10
2019-03-03T05:39:29.162Z,34.10
2019-03-03T05:40:29.465Z,34.20
2019-03-03T05:41:29.801Z,31.50
2019-03-03T05:42:29.990Z,29.30
2019-03-03T05:43:30.273Z,30.70
2019-03-03T05:44:30.525Z,27.20
2019-03-03T05:45:30.820Z,29.40
2019-03-03T05:46:31.081Z,31.70
2019-03-03T05:47:31.335Z,29.10
2019-03-03T05:48:31.644Z,29.00
2019-03-03T05:49:32.239Z,25.60
2019-03-03T05:50:32.163Z,28.80
2019-03-03T05:51:32.421Z,26.70
2019-03-03T05:52:32.670Z,29.10
2019-03-03T05:53:32.972Z,28.50
2019-03-03T05:54:33.221Z,29.70
2019-03-03T05:55:33.499Z,30.70
2019-03-03T05:56:33.781Z,27.70
2019-03-03T05:57:34.125Z,27.20
2019-03-03T05:58:34.312Z,33.40
2019-03-03T05:59:34.561Z,32.10
2019-03-03T06:00:34.845Z,37.30
2019-03-03T06:01:35.118Z,35.80
2019-03-03T06:02:35.369Z,34.40
2019-03-03T06:03:35.639Z,33.10
2019-03-03T06:04:35.905Z,33.60
2019-03-03T06:05:36.261Z,34.40
2019-03-03T06:06:36.442Z,33.60
2019-03-03T06:07:36.699Z,33.10
2019-03-03T06:08:36.988Z,31.60
2019-03-03T06:09:37.223Z,31.90
2019-03-03T06:10:37.539Z,35.90
2019-03-03T06:11:37.793Z,31.10
2019-03-03T06:12:38.038Z,29.40
2019-03-03T06:13:38.383Z,29.00
2019-03-03T06:14:38.540Z,30.20
2019-03-03T06:15:38.860Z,27.50
2019-03-03T06:16:39.140Z,25.60
2019-03-03T06:17:39.396Z,28.20
2019-03-03T06:18:39.680Z,22.20
2019-03-03T06:19:39.934Z,23.80
2019-03-03T06:20:40.197Z,27.00
2019-03-03T06:21:40.493Z,28.80
2019-03-03T06:22:40.867Z,25.50
2019-03-03T06:23:41.008Z,25.80
2019-03-03T06:24:41.266Z,24.90
2019-03-03T06:25:41.554Z,26.10
2019-03-03T06:26:41.821Z,22.90
2019-03-03T06:27:42.087Z,24.80
2019-03-03T06:28:42.383Z,22.20
2019-03-03T06:29:42.629Z,19.40
2019-03-03T06:30:43.039Z,24.10
2019-03-03T06:31:43.182Z,24.70
2019-03-03T06:32:43.432Z,21.80
2019-03-03T06:33:43.715Z,19.90
2019-03-03T06:34:43.973Z,21.80
2019-03-03T06:35:44.267Z,19.50
2019-03-03T06:36:44.509Z,21.60
2019-03-03T06:37:44.767Z,19.10
2019-03-03T06:38:45.139Z,21.30
2019-03-03T06:39:45.300Z,22.00
2019-03-03T06:40:45.572Z,18.30
2019-03-03T06:41:45.868Z,20.50
2019-03-03T06:42:46.092Z,18.90
2019-03-03T06:43:46.379Z,17.60
2019-03-03T06:44:46.664Z,22.20
2019-03-03T06:45:46.932Z,19.80
2019-03-03T06:46:47.287Z,19.50
2019-03-03T06:47:47.449Z,21.40
2019-03-03T06:48:47.713Z,18.50
2019-03-03T06:49:48.016Z,19.40
2019-03-03T06:50:48.282Z,20.10
2019-03-03T06:51:48.570Z,18.70
2019-03-03T06:52:48.820Z,18.40
2019-03-03T06:53:49.097Z,16.60
2019-03-03T06:54:49.390Z,17.50
2019-03-03T06:55:49.724Z,18.60
2019-03-03T06:56:49.959Z,16.40
2019-03-03T06:57:50.204Z,14.90
2019-03-03T06:58:50.459Z,16.40
2019-03-03T06:59:50.744Z,16.50
2019-03-03T07:00:51.010Z,16.40
2019-03-03T07:01:51.329Z,15.30
2019-03-03T07:02:51.586Z,16.80
2019-03-03T07:03:51.978Z,16.50
2019-03-03T07:04:52.107Z,15.70
2019-03-03T07:05:52.380Z,18.70
2019-03-03T07:06:52.669Z,14.80
2019-03-03T07:07:52.910Z,16.00
2019-03-03T07:08:53.180Z,15.30
2019-03-03T07:09:53.460Z,16.30
2019-03-03T07:10:53.717Z,15.90
2019-03-03T07:11:54.143Z,14.50
2019-03-03T07:12:54.265Z,14.50
2019-03-03T07:13:54.532Z,13.10
2019-03-03T07:14:54.823Z,13.60
2019-03-03T07:15:55.056Z,14.30
2019-03-03T07:16:55.386Z,13.70
2019-03-03T07:17:55.613Z,15.40
2019-03-03T07:18:55.906Z,10.80
2019-03-03T07:19:56.192Z,11.90
2019-03-03T07:20:56.382Z,14.80
2019-03-03T07:21:56.677Z,10.60
2019-03-03T07:22:56.942Z,14.00
2019-03-03T07:23:57.219Z,13.20
2019-03-03T07:24:57.497Z,13.30
2019-03-03T07:25:57.808Z,10.70
2019-03-03T07:26:58.278Z,11.00
2019-03-03T07:27:58.559Z,12.40
2019-03-03T07:28:58.524Z,11.60
2019-03-03T07:29:58.811Z,11.00
2019-03-03T07:30:59.069Z,12.10
2019-03-03T07:31:59.385Z,9.70
2019-03-03T07:32:59.603Z,10.60
2019-03-03T07:33:59.862Z,12.30
2019-03-03T07:35:00.275Z,11.40
2019-03-03T07:36:00.457Z,10.20
2019-03-03T07:37:00.778Z,11.40
2019-03-03T07:38:00.949Z,9.70
2019-03-03T07:39:01.201Z,12.40
2019-03-03T07:40:01.503Z,9.60
2019-03-03T07:41:01.755Z,9.80
2019-03-03T07:42:02.050Z,9.30
2019-03-03T07:43:02.292Z,11.60
2019-03-03T07:44:02.564Z,9.30
2019-03-03T07:45:04.515Z,10.10
2019-03-03T07:46:03.081Z,10.40
2019-03-03T07:47:03.384Z,9.50
2019-03-03T07:48:03.622Z,9.20
2019-03-03T07:49:03.890Z,10.20
2019-03-03T07:50:04.162Z,10.10
2019-03-03T07:51:04.437Z,9.50
2019-03-03T07:52:04.735Z,11.00
2019-03-03T07:53:05.042Z,10.50
2019-03-03T07:54:05.227Z,10.40
2019-03-03T07:55:05.499Z,9.00
2019-03-03T07:56:05.768Z,10.10
2019-03-03T07:57:06.042Z,10.50
2019-03-03T07:58:06.304Z,10.20
2019-03-03T07:59:06.571Z,12.10
2019-03-03T08:00:06.870Z,11.40
2019-03-03T08:01:07.142Z,12.40
2019-03-03T08:02:07.370Z,8.20
2019-03-03T08:03:07.651Z,9.80
2019-03-03T08:04:07.917Z,9.20
2019-03-03T08:05:08.203Z,9.20
2019-03-03T08:06:08.452Z,12.20
2019-03-03T08:07:08.751Z,10.70
2019-03-03T08:08:09.000Z,9.50
2019-03-03T08:09:09.354Z,10.20
2019-03-03T08:10:09.558Z,8.40
2019-03-03T08:11:09.807Z,8.70
2019-03-03T08:12:10.109Z,10.40
2019-03-03T08:13:10.351Z,10.80
2019-03-03T08:14:10.612Z,9.90
2019-03-03T08:15:10.904Z,8.90
2019-03-03T08:16:11.161Z,11.60
2019-03-03T08:17:11.552Z,9.10
2019-03-03T08:18:11.780Z,9.30
2019-03-03T08:19:11.964Z,10.00
2019-03-03T08:20:12.242Z,6.80
2019-03-03T08:21:12.497Z,10.70
2019-03-03T08:22:12.806Z,11.40
2019-03-03T08:23:13.047Z,9.20
2019-03-03T08:24:13.285Z,8.20
2019-03-03T08:25:13.601Z,10.00
2019-03-03T08:26:13.937Z,9.30
2019-03-03T08:27:14.279Z,9.60
2019-03-03T08:28:14.365Z,9.60
2019-03-03T08:29:14.616Z,7.70
2019-03-03T08:30:14.921Z,9.80
2019-03-03T08:31:15.174Z,8.10
2019-03-03T08:32:15.470Z,9.20
2019-03-03T08:33:15.733Z,10.50
2019-03-03T08:34:16.031Z,11.30
2019-03-03T08:35:16.278Z,9.90
2019-03-03T08:36:16.500Z,10.00
2019-03-03T08:37:16.784Z,10.50
2019-03-03T08:38:17.067Z,8.70
2019-03-03T08:39:17.312Z,8.70
2019-03-03T08:40:17.607Z,11.00
2019-03-03T08:41:17.855Z,8.00
2019-03-03T08:42:18.169Z,8.30
2019-03-03T08:43:18.401Z,10.20
2019-03-03T08:44:18.657Z,11.20
2019-03-03T08:45:18.971Z,10.40
2019-03-03T08:46:19.174Z,9.30
2019-03-03T08:47:19.460Z,10.60
2019-03-03T08:48:22.657Z,10.60
2019-03-03T08:49:19.991Z,11.80
2019-03-03T08:50:20.346Z,11.10
2019-03-03T08:51:20.539Z,10.00
2019-03-03T08:52:20.817Z,8.70
2019-03-03T08:53:21.100Z,10.20
2019-03-03T08:54:21.334Z,11.70
2019-03-03T08:55:21.648Z,10.90
2019-03-03T08:56:21.881Z,13.00
2019-03-03T08:57:22.124Z,9.00
2019-03-03T08:58:22.419Z,10.40
2019-03-03T08:59:22.780Z,9.90
2019-03-03T09:00:22.969Z,10.90
2019-03-03T09:01:23.210Z,9.60
2019-03-03T09:02:23.466Z,10.70
2019-03-03T09:03:23.766Z,10.30
2019-03-03T09:04:24.016Z,9.90
2019-03-03T09:05:24.295Z,8.30
2019-03-03T09:06:24.787Z,9.90
2019-03-03T09:07:24.947Z,11.20
2019-03-03T09:08:25.122Z,9.30
2019-03-03T09:09:26.120Z,8.60
2019-03-03T09:10:25.749Z,10.30
2019-03-03T09:11:25.932Z,10.20
2019-03-03T09:12:26.201Z,8.80
2019-03-03T09:13:26.479Z,11.50
2019-03-03T09:14:26.745Z,11.10
2019-03-03T09:15:27.101Z,10.50
2019-03-03T09:16:27.282Z,8.70
2019-03-03T09:17:27.548Z,10.80
2019-03-03T09:18:27.837Z,10.20
2019-03-03T09:19:28.071Z,10.40
2019-03-03T09:20:28.362Z,12.50
2019-03-03T09:21:28.636Z,11.00
2019-03-03T09:22:28.888Z,9.90
2019-03-03T09:23:29.221Z,10.90
2019-03-03T09:24:29.437Z,9.70
2019-03-03T09:25:29.663Z,10.20
2019-03-03T09:26:29.958Z,8.40
2019-03-03T09:27:30.211Z,12.40
2019-03-03T09:28:30.502Z,8.90
2019-03-03T09:29:30.783Z,9.30
2019-03-03T09:30:31.006Z,9.50
2019-03-03T09:31:31.321Z,10.20
2019-03-03T09:32:31.612Z,8.00
2019-03-03T09:33:31.834Z,9.30
2019-03-03T09:34:32.102Z,12.80
2019-03-03T09:35:32.344Z,11.40
2019-03-03T09:36:32.643Z,12.40
2019-03-03T09:37:32.919Z,10.40
2019-03-03T09:38:33.239Z,10.80
2019-03-03T09:39:33.502Z,9.20
2019-03-03T09:40:33.823Z,10.70
2019-03-03T09:41:34.001Z,10.50
2019-03-03T09:42:34.252Z,11.80
2019-03-03T09:43:34.537Z,11.10
2019-03-03T09:44:34.817Z,11.10
2019-03-03T09:45:35.048Z,9.70
2019-03-03T09:46:35.325Z,8.50
2019-03-03T09:47:35.577Z,9.00
2019-03-03T09:48:35.951Z,12.40
2019-03-03T09:49:36.148Z,9.10
2019-03-03T09:50:36.391Z,9.90
2019-03-03T09:51:36.658Z,9.70
2019-03-03T09:52:36.911Z,8.60
2019-03-03T09:53:37.214Z,10.40
2019-03-03T09:54:37.483Z,9.10
2019-03-03T09:55:37.735Z,10.40
2019-03-03T09:56:38.054Z,10.50
2019-03-03T09:57:38.232Z,9.50
2019-03-03T09:58:38.546Z,10.90
2019-03-03T09:59:38.850Z,10.60
2019-03-03T10:00:39.694Z,9.70
2019-03-03T10:01:39.365Z,8.30
2019-03-03T10:02:39.614Z,10.50
2019-03-03T10:03:39.861Z,14.80
2019-03-03T10:04:40.240Z,9.90
2019-03-03T10:05:40.388Z,8.70
2019-03-03T10:06:40.688Z,10.70
2019-03-03T10:07:40.940Z,9.90
2019-03-03T10:08:41.218Z,9.80
2019-03-03T10:09:41.499Z,11.80
2019-03-03T10:10:41.753Z,10.30
2019-03-03T10:11:42.032Z,9.10
2019-03-03T10:12:42.318Z,11.40
2019-03-03T10:13:42.636Z,9.00
2019-03-03T10:14:42.854Z,10.50
2019-03-03T10:15:43.146Z,9.60
2019-03-03T10:16:43.396Z,9.10
2019-03-03T10:17:43.676Z,12.50
2019-03-03T10:18:43.908Z,11.10
2019-03-03T10:19:44.242Z,9.30
2019-03-03T10:20:44.440Z,9.00
2019-03-03T10:21:47.691Z,9.20
2019-03-03T10:22:44.990Z,13.90
2019-03-03T10:23:45.258Z,10.80
2019-03-03T10:24:45.835Z,13.30
2019-03-03T10:26:01.161Z,10.20
2019-03-03T10:28:07.344Z,9.60
2019-03-03T10:29:00.229Z,10.30
2019-03-03T10:30:04.287Z,10.60
2019-03-03T10:31:00.157Z,10.20
2019-03-03T10:32:00.328Z,8.10
2019-03-03T10:33:00.595Z,8.80
2019-03-03T10:34:00.859Z,9.10
2019-03-03T10:35:01.144Z,8.60
2019-03-03T10:36:01.417Z,11.20
2019-03-03T10:37:01.662Z,8.80
2019-03-03T10:38:02.963Z,9.00
2019-03-03T10:39:02.345Z,10.30
2019-03-03T10:40:02.517Z,10.80
2019-03-03T10:41:02.752Z,8.20
2019-03-03T10:42:03.077Z,10.20
2019-03-03T10:43:03.337Z,10.10
2019-03-03T10:44:03.554Z,8.40
2019-03-03T10:45:04.082Z,9.50
2019-03-03T10:46:04.072Z,11.90
2019-03-03T10:47:04.435Z,9.60
2019-03-03T10:48:04.686Z,7.30
2019-03-03T10:49:04.963Z,9.20
2019-03-03T10:50:05.188Z,9.50
2019-03-03T10:51:05.466Z,9.20
2019-03-03T10:52:05.719Z,12.50
2019-03-03T10:53:05.982Z,14.30
2019-03-03T10:54:06.247Z,17.70
2019-03-03T10:55:06.574Z,12.30
2019-03-03T10:56:06.778Z,12.20
2019-03-03T10:57:07.070Z,12.40
2019-03-03T10:58:07.329Z,11.20
2019-03-03T10:59:07.598Z,9.40
2019-03-03T11:00:07.879Z,10.90
2019-03-03T11:01:08.142Z,10.60
2019-03-03T11:02:08.402Z,12.10
2019-03-03T11:03:08.708Z,9.60
2019-03-03T11:04:09.013Z,10.50
2019-03-03T11:05:09.225Z,12.70
2019-03-03T11:06:09.486Z,10.60
2019-03-03T11:07:09.743Z,11.90
2019-03-03T11:08:10.155Z,9.60
2019-03-03T11:09:10.266Z,10.00
2019-03-03T11:10:10.571Z,9.10
2019-03-03T11:11:10.826Z,10.60
2019-03-03T11:12:11.212Z,11.00
2019-03-03T11:13:11.371Z,10.40
2019-03-03T11:14:11.626Z,9.90
2019-03-03T11:15:18.208Z,9.80
2019-03-03T11:16:13.469Z,10.20
2019-03-03T11:17:12.449Z,9.50
2019-03-03T11:18:14.014Z,8.90
2019-03-03T11:19:12.983Z,11.90
2019-03-03T11:20:13.339Z,11.20
2019-03-03T11:21:13.515Z,12.00
2019-03-03T11:22:13.773Z,11.50
2019-03-03T11:23:14.068Z,8.30
2019-03-03T11:24:14.321Z,9.30
2019-03-03T11:25:14.742Z,12.40
2019-03-03T11:26:14.872Z,9.30
2019-03-03T11:27:15.134Z,10.90
2019-03-03T11:28:23.352Z,8.30
2019-03-03T11:29:17.245Z,9.60
2019-03-03T11:30:15.930Z,9.70
2019-03-03T11:31:16.183Z,12.60
2019-03-03T11:32:16.472Z,9.20
2019-03-03T11:33:16.759Z,10.10
2019-03-03T11:34:17.014Z,9.20
2019-03-03T11:35:17.285Z,9.30
2019-03-03T11:36:17.583Z,9.70
2019-03-03T11:37:17.880Z,8.20
2019-03-03T11:38:18.109Z,10.00
2019-03-03T11:39:18.359Z,12.90
2019-03-03T11:40:18.636Z,8.70
2019-03-03T11:41:18.921Z,12.10
2019-03-03T11:42:19.796Z,11.10
2019-03-03T11:43:19.469Z,8.00
2019-03-03T11:44:19.737Z,9.40
2019-03-03T11:45:20.119Z,7.50
2019-03-03T11:46:20.301Z,6.90
2019-03-03T11:47:20.545Z,9.40
2019-03-03T11:48:20.866Z,8.30
2019-03-03T11:49:21.155Z,9.20
2019-03-03T11:50:21.371Z,9.00
2019-03-03T11:51:21.700Z,10.40
2019-03-03T11:52:21.904Z,8.10
2019-03-03T11:53:22.289Z,8.70
2019-03-03T11:54:22.425Z,12.40
2019-03-03T11:55:22.701Z,10.40
2019-03-03T11:56:23.020Z,8.20
2019-03-03T11:57:23.235Z,9.90
2019-03-03T11:58:23.520Z,14.20
2019-03-03T11:59:23.752Z,10.20
2019-03-03T12:00:24.043Z,9.10
2019-03-03T12:01:24.409Z,9.60
2019-03-03T12:02:24.561Z,10.00
2019-03-03T12:03:24.890Z,10.20
2019-03-03T12:04:29.250Z,9.20
2019-03-03T12:05:25.353Z,11.10
2019-03-03T12:06:25.692Z,13.20
2019-03-03T12:07:25.913Z,10.60
2019-03-03T12:08:26.201Z,7.80
2019-03-03T12:09:26.475Z,10.70
2019-03-03T12:10:26.758Z,10.60
2019-03-03T12:11:27.205Z,10.30
2019-03-03T12:12:27.255Z,12.40
2019-03-03T12:13:27.539Z,8.00
2019-03-03T12:14:27.791Z,11.20
2019-03-03T12:15:28.058Z,9.40
2019-03-03T12:16:28.352Z,11.10
2019-03-03T12:17:28.619Z,12.50
2019-03-03T12:18:29.008Z,11.30
2019-03-03T12:19:29.158Z,10.60
2019-03-03T12:20:29.427Z,14.10
2019-03-03T12:21:29.706Z,9.20
2019-03-03T12:22:29.960Z,11.20
2019-03-03T12:23:30.247Z,14.50
2019-03-03T12:24:35.311Z,9.70
2019-03-03T12:25:30.773Z,11.30
2019-03-03T12:26:31.261Z,15.90
2019-03-03T12:27:31.295Z,10.30
2019-03-03T12:28:31.596Z,9.80
2019-03-03T12:29:31.847Z,10.00
2019-03-03T12:30:32.109Z,11.50
2019-03-03T12:31:32.458Z,11.20
2019-03-03T12:32:32.652Z,10.40
2019-03-03T12:33:32.921Z,10.40
2019-03-03T12:34:33.241Z,13.20
2019-03-03T12:35:33.441Z,13.30
2019-03-03T12:36:33.761Z,11.10
2019-03-03T12:37:33.986Z,10.60
2019-03-03T12:38:34.271Z,12.70
2019-03-03T12:39:34.507Z,13.50
2019-03-03T12:40:34.789Z,11.60
2019-03-03T12:41:35.099Z,12.40
2019-03-03T12:42:35.388Z,11.00
2019-03-03T12:43:35.598Z,12.40
2019-03-03T12:44:35.846Z,9.90
2019-03-03T12:45:36.133Z,12.60
2019-03-03T12:46:36.478Z,8.90
2019-03-03T12:47:36.689Z,14.60
2019-03-03T12:48:36.994Z,10.30
2019-03-03T12:49:37.228Z,12.90
2019-03-03T12:50:37.512Z,9.40
2019-03-03T12:51:37.913Z,10.40
2019-03-03T12:52:38.051Z,8.70
2019-03-03T12:53:38.315Z,9.50
2019-03-03T12:54:38.585Z,8.90
2019-03-03T12:55:38.837Z,11.40
2019-03-03T12:56:39.150Z,11.70
2019-03-03T12:57:39.394Z,12.00
2019-03-03T12:58:39.660Z,11.30
2019-03-03T12:59:40.087Z,14.50
2019-03-03T13:00:40.198Z,9.50
2019-03-03T13:01:40.530Z,8.90
2019-03-03T13:02:40.773Z,13.20